Time;durP1;ratioP1;P1;durP2;ratioP2;P2;SDS_P1;SDS_P2;PMS_P1;PMS_P2;Temp;Humidity;BMP_temperature;BMP_pressure;BME280_temperature;BME280_humidity;BME280_pressure;Samples;Min_cycle;Max_cycle;Signal;HPM_P1;HPM_P2
2021/01/18 00:01:39;;;;;;;0.70;0.70;;;3.70;99.90;;;;;;4954264;28;20220;-89
2021/01/18 00:04:09;;;;;;;0.87;0.87;;;3.70;99.90;;;;;;4955449;28;20715;-88
2021/01/18 00:06:38;;;;;;;0.50;0.50;;;3.70;99.90;;;;;;4924495;29;20328;-88
2021/01/18 00:09:04;;;;;;;0.30;0.30;;;3.70;99.90;;;;;;4956703;28;20225;-88
2021/01/18 00:11:31;;;;;;;9.47;2.50;;;3.60;99.90;;;;;;4956726;28;20213;-89
2021/01/18 00:14:00;;;;;;;0.30;0.30;;;3.60;99.90;;;;;;4942055;29;20343;-89
2021/01/18 00:16:26;;;;;;;2.73;2.17;;;3.50;99.90;;;;;;4924586;29;20395;-88
2021/01/18 00:18:53;;;;;;;0.73;0.67;;;3.50;99.90;;;;;;4923371;28;20757;-88
2021/01/18 00:21:19;;;;;;;1.67;1.53;;;3.50;99.90;;;;;;4925616;28;20257;-88
2021/01/18 00:23:45;;;;;;;1.20;0.67;;;3.40;99.90;;;;;;4941950;28;20589;-89
2021/01/18 00:26:11;;;;;;;4.23;0.73;;;3.30;99.90;;;;;;4958934;28;20236;-89
2021/01/18 00:28:38;;;;;;;0.73;0.73;;;3.30;99.90;;;;;;4940444;29;20220;-89
2021/01/18 00:31:05;;;;;;;1.13;1.10;;;3.30;99.90;;;;;;4956468;28;20811;-90
2021/01/18 00:33:32;;;;;;;1.03;0.53;;;3.30;99.90;;;;;;4924955;29;20214;-88
2021/01/18 00:35:58;;;;;;;4.30;0.90;;;3.40;99.90;;;;;;4940719;29;20217;-89
2021/01/18 00:38:23;;;;;;;6.53;1.00;;;3.40;99.90;;;;;;4925765;29;20193;-89
2021/01/18 00:40:49;;;;;;;1.13;1.13;;;3.40;99.90;;;;;;4941419;29;20264;-89
2021/01/18 00:43:15;;;;;;;5.73;2.53;;;3.40;99.90;;;;;;4924619;29;20213;-89
2021/01/18 00:45:41;;;;;;;0.87;0.50;;;3.30;99.90;;;;;;4940955;28;20291;-89
2021/01/18 00:48:07;;;;;;;6.97;2.70;;;3.40;99.90;;;;;;4944280;28;20684;-89
2021/01/18 00:50:33;;;;;;;0.87;0.40;;;3.50;99.90;;;;;;4945113;28;20200;-89
2021/01/18 00:52:59;;;;;;;1.53;1.43;;;3.50;99.90;;;;;;4946680;29;20185;-89
2021/01/18 00:55:25;;;;;;;0.60;0.60;;;3.50;99.90;;;;;;4944486;29;20713;-89
2021/01/18 00:57:52;;;;;;;2.87;2.77;;;3.50;99.90;;;;;;4944915;28;20233;-89
2021/01/18 01:00:21;;;;;;;3.40;0.40;;;3.50;99.90;;;;;;4945669;28;20225;-89
2021/01/18 01:02:49;;;;;;;1.13;0.90;;;3.50;99.90;;;;;;4944975;28;20225;-89
2021/01/18 01:05:19;;;;;;;17.30;1.63;;;3.50;99.90;;;;;;4961602;28;20201;-89
2021/01/18 01:07:47;;;;;;;1.73;0.50;;;3.50;99.90;;;;;;4944231;28;20213;-89
2021/01/18 01:10:19;;;;;;;6.87;0.37;;;3.60;99.90;;;;;;4943893;29;20228;-89
2021/01/18 01:12:44;;;;;;;2.50;0.77;;;3.60;99.90;;;;;;4960523;28;20244;-89
2021/01/18 01:15:11;;;;;;;2.43;1.63;;;3.50;99.90;;;;;;4928694;28;20774;-88
2021/01/18 01:17:44;;;;;;;0.60;0.50;;;3.50;99.90;;;;;;4943638;28;20548;-88
2021/01/18 01:20:11;;;;;;;1.00;1.00;;;3.40;99.90;;;;;;4945024;29;20221;-89
2021/01/18 01:22:40;;;;;;;0.30;0.30;;;3.40;99.90;;;;;;4927833;29;20352;-89
2021/01/18 01:25:08;;;;;;;1.27;0.40;;;3.30;99.90;;;;;;4944232;28;20225;-88
2021/01/18 01:27:34;;;;;;;5.53;2.73;;;3.40;99.90;;;;;;4928487;29;20255;-88
2021/01/18 01:29:59;;;;;;;0.30;0.30;;;3.30;99.90;;;;;;4944363;28;20233;-88
2021/01/18 01:32:25;;;;;;;1.30;1.20;;;3.30;99.90;;;;;;4927605;28;20202;-88
2021/01/18 01:34:51;;;;;;;5.40;1.23;;;3.30;99.90;;;;;;4929173;29;20556;-88
2021/01/18 01:37:17;;;;;;;9.90;1.50;;;3.40;99.90;;;;;;4943237;28;20221;-89
2021/01/18 01:39:43;;;;;;;1.77;1.30;;;3.30;99.90;;;;;;4943077;29;20237;-88
2021/01/18 01:42:23;;;;;;;0.77;0.60;;;3.30;99.90;;;;;;4927421;29;20221;-88
2021/01/18 01:44:49;;;;;;;5.20;1.17;;;3.30;99.90;;;;;;4927221;28;20225;-89
2021/01/18 01:47:27;;;;;;;0.57;0.57;;;3.20;99.90;;;;;;4928899;29;20190;-89
2021/01/18 01:50:31;;;;;;;8.10;1.00;;;3.10;99.90;;;;;;4942435;29;21031;-88
2021/01/18 01:53:28;;;;;;;0.60;0.60;;;3.20;99.90;;;;;;4934195;29;20416;-87
2021/01/18 01:55:55;;;;;;;1.93;1.83;;;3.20;99.90;;;;;;4936945;29;20721;-89
2021/01/18 01:58:24;;;;;;;3.43;1.00;;;3.20;99.90;;;;;;4932121;28;20577;-88
2021/01/18 02:01:04;;;;;;;0.63;0.63;;;3.20;99.90;;;;;;4938807;28;20259;-89
2021/01/18 02:03:42;;;;;;;2.07;1.03;;;3.10;99.90;;;;;;4924452;29;20236;-88
2021/01/18 02:06:09;;;;;;;12.80;0.77;;;3.10;99.90;;;;;;4941329;28;20231;-88
2021/01/18 02:08:36;;;;;;;0.43;0.43;;;3.10;99.90;;;;;;4925386;28;20223;-89
2021/01/18 02:11:03;;;;;;;0.93;0.93;;;3.00;99.90;;;;;;4944579;29;20189;-88
2021/01/18 02:14:01;;;;;;;5.90;1.33;;;3.10;99.90;;;;;;4942342;28;20765;-88
2021/01/18 02:16:43;;;;;;;0.30;0.30;;;3.10;99.90;;;;;;4943558;28;20221;-88
2021/01/18 02:19:27;;;;;;;9.20;1.70;;;3.10;99.90;;;;;;4940320;28;20221;-88
2021/01/18 02:22:17;;;;;;;1.37;1.20;;;3.20;99.90;;;;;;4941991;28;20313;-89
2021/01/18 02:25:08;;;;;;;1.27;0.77;;;3.20;99.90;;;;;;4942616;29;20304;-89
2021/01/18 02:27:49;;;;;;;0.63;0.63;;;3.10;99.90;;;;;;4941571;28;20225;-89
2021/01/18 02:30:42;;;;;;;2.23;0.97;;;3.00;99.90;;;;;;4958162;28;20232;-89
2021/01/18 02:33:45;;;;;;;1.37;1.27;;;2.80;99.90;;;;;;4943533;28;20312;-89
2021/01/18 02:36:28;;;;;;;0.93;0.63;;;2.80;99.90;;;;;;4939751;28;20260;-89
2021/01/18 02:39:10;;;;;;;0.50;0.50;;;2.70;99.90;;;;;;4941405;28;20229;-89
2021/01/18 02:41:37;;;;;;;0.40;0.40;;;2.70;99.90;;;;;;4943341;28;20267;-89
2021/01/18 02:44:13;;;;;;;1.37;1.07;;;2.70;99.90;;;;;;4943205;29;20237;-89
2021/01/18 02:46:41;;;;;;;8.20;1.30;;;2.80;99.90;;;;;;4925771;29;20224;-89
2021/01/18 02:49:07;;;;;;;0.87;0.83;;;2.90;99.90;;;;;;4930900;28;20240;-88
2021/01/18 02:51:41;;;;;;;0.80;0.80;;;3.00;99.90;;;;;;4961609;28;20928;-89
2021/01/18 02:54:07;;;;;;;1.63;0.87;;;3.00;99.90;;;;;;4981661;28;20309;-88
2021/01/18 02:56:34;;;;;;;10.40;1.23;;;3.00;99.90;;;;;;4979811;28;20270;-89
2021/01/18 02:59:01;;;;;;;2.27;1.60;;;3.00;99.90;;;;;;4949982;28;20191;-88
2021/01/18 03:01:51;;;;;;;0.40;0.40;;;3.00;99.90;;;;;;4947996;28;20232;-88
2021/01/18 03:04:56;;;;;;;1.10;0.63;;;3.00;99.90;;;;;;4979795;28;20544;-89
2021/01/18 03:07:42;;;;;;;12.23;0.50;;;3.00;99.90;;;;;;4951062;28;20255;-88
2021/01/18 03:10:33;;;;;;;4.70;0.90;;;3.10;99.90;;;;;;4980598;28;20751;-89
2021/01/18 03:13:06;;;;;;;4.37;2.00;;;3.10;99.90;;;;;;4979853;28;20704;-87
2021/01/18 03:15:41;;;;;;;3.80;2.40;;;3.10;99.90;;;;;;4980139;28;20247;-89
2021/01/18 03:18:12;;;;;;;11.77;0.90;;;3.10;99.90;;;;;;4961508;28;20277;-88
2021/01/18 03:20:39;;;;;;;6.37;0.67;;;3.20;99.90;;;;;;4963113;28;20227;-89
2021/01/18 03:23:08;;;;;;;0.20;0.20;;;3.20;99.90;;;;;;4964961;28;20188;-88
2021/01/18 03:25:55;;;;;;;8.80;0.97;;;3.30;99.90;;;;;;4964606;28;20287;-88
2021/01/18 03:28:23;;;;;;;6.43;1.73;;;3.20;99.90;;;;;;4980773;28;20234;-88
2021/01/18 03:30:49;;;;;;;6.00;1.10;;;3.20;99.90;;;;;;4963740;28;20215;-89
2021/01/18 03:33:16;;;;;;;0.73;0.73;;;3.20;99.90;;;;;;4964867;28;20227;-88
2021/01/18 03:35:43;;;;;;;12.70;1.60;;;3.20;99.90;;;;;;4980772;28;20199;-88
2021/01/18 03:38:09;;;;;;;6.63;0.90;;;3.20;99.90;;;;;;4982000;28;20211;-88
2021/01/18 03:40:35;;;;;;;11.73;1.00;;;3.20;99.90;;;;;;4962835;28;20271;-88
2021/01/18 03:43:06;;;;;;;1.40;0.73;;;3.30;99.90;;;;;;4980455;28;20311;-88
2021/01/18 03:45:35;;;;;;;0.90;0.90;;;3.30;99.90;;;;;;4962288;28;20216;-87
2021/01/18 03:48:02;;;;;;;0.70;0.70;;;3.30;99.90;;;;;;4963275;28;20240;-89
2021/01/18 03:50:28;;;;;;;0.33;0.33;;;3.30;99.90;;;;;;4963370;28;20675;-89
2021/01/18 03:52:54;;;;;;;2.83;1.17;;;3.30;99.90;;;;;;4948998;28;20196;-89
2021/01/18 03:55:21;;;;;;;0.70;0.60;;;3.30;99.90;;;;;;4963111;28;20222;-88
2021/01/18 03:57:49;;;;;;;2.20;2.10;;;3.30;99.90;;;;;;4963447;28;20220;-88
2021/01/18 04:00:17;;;;;;;1.87;0.80;;;3.30;99.90;;;;;;4981130;28;20354;-88
2021/01/18 04:02:45;;;;;;;1.40;1.23;;;3.30;99.90;;;;;;4979653;28;20230;-89
2021/01/18 04:05:12;;;;;;;0.37;0.37;;;3.30;99.90;;;;;;4965367;28;20223;-89
2021/01/18 04:07:37;;;;;;;1.23;1.10;;;3.40;99.90;;;;;;4979803;28;20222;-89
2021/01/18 04:10:04;;;;;;;1.10;1.10;;;3.40;99.90;;;;;;4980267;28;20564;-89
2021/01/18 04:12:30;;;;;;;4.50;1.00;;;3.40;99.90;;;;;;4946195;28;20270;-88
2021/01/18 04:14:56;;;;;;;0.70;0.60;;;3.40;99.90;;;;;;4962711;28;20682;-89
2021/01/18 04:17:21;;;;;;;0.30;0.30;;;3.40;99.90;;;;;;4963142;28;20243;-89
2021/01/18 04:19:47;;;;;;;2.73;2.40;;;3.40;99.90;;;;;;4963262;28;21082;-88
2021/01/18 04:22:13;;;;;;;1.80;1.50;;;3.50;99.90;;;;;;4950212;28;20626;-89
2021/01/18 04:24:39;;;;;;;1.40;1.30;;;3.40;99.90;;;;;;4984573;28;20354;-88
2021/01/18 04:27:07;;;;;;;0.30;0.30;;;3.50;99.90;;;;;;4967385;28;20228;-88
2021/01/18 04:29:33;;;;;;;1.47;1.40;;;3.60;99.90;;;;;;4951587;28;21068;-88
2021/01/18 04:31:59;;;;;;;1.27;0.90;;;3.60;99.90;;;;;;4968227;28;20192;-88
2021/01/18 04:34:25;;;;;;;4.03;2.00;;;3.60;99.90;;;;;;4949978;28;20224;-88
2021/01/18 04:36:50;;;;;;;9.73;1.13;;;3.60;99.90;;;;;;4949951;28;20224;-89
2021/01/18 04:39:16;;;;;;;1.10;1.10;;;3.70;99.90;;;;;;4983023;28;20310;-87
2021/01/18 04:41:44;;;;;;;8.37;1.50;;;3.70;99.90;;;;;;4983534;28;20755;-89
2021/01/18 04:44:12;;;;;;;0.57;0.43;;;3.70;99.90;;;;;;4967553;28;20258;-87
2021/01/18 04:46:40;;;;;;;10.50;1.47;;;3.70;99.90;;;;;;4965816;28;20220;-87
2021/01/18 04:49:14;;;;;;;5.70;2.13;;;3.80;99.90;;;;;;4966796;28;20240;-88
2021/01/18 04:51:58;;;;;;;2.33;1.63;;;3.80;99.90;;;;;;4966587;28;20230;-87
2021/01/18 04:54:27;;;;;;;4.57;2.70;;;3.80;99.90;;;;;;4983673;28;20241;-88
2021/01/18 04:57:15;;;;;;;5.00;1.97;;;3.90;99.90;;;;;;4966085;28;20236;-89
2021/01/18 04:59:43;;;;;;;23.60;2.00;;;3.90;99.90;;;;;;4966831;28;20208;-89
2021/01/18 05:02:12;;;;;;;4.33;1.47;;;3.90;99.90;;;;;;4983728;28;20272;-89
2021/01/18 05:04:40;;;;;;;3.27;1.53;;;3.90;99.90;;;;;;4965492;28;20231;-89
2021/01/18 05:07:35;;;;;;;2.10;1.83;;;3.90;99.90;;;;;;4965791;28;20224;-88
2021/01/18 05:10:06;;;;;;;1.63;1.37;;;3.90;99.90;;;;;;4983450;28;20224;-89
2021/01/18 05:12:35;;;;;;;1.13;1.00;;;3.90;99.90;;;;;;4966121;28;20822;-89
2021/01/18 05:15:04;;;;;;;1.20;1.13;;;4.00;99.90;;;;;;4982964;28;20224;-89
2021/01/18 05:17:38;;;;;;;1.77;1.30;;;4.00;99.90;;;;;;4964366;28;20212;-89
2021/01/18 05:20:05;;;;;;;1.87;1.43;;;4.00;99.90;;;;;;4967707;28;20227;-89
2021/01/18 05:22:32;;;;;;;1.50;1.40;;;4.10;99.90;;;;;;4949183;28;20226;-88
2021/01/18 05:25:00;;;;;;;0.80;0.80;;;4.10;99.90;;;;;;4947392;28;20230;-90
2021/01/18 05:27:25;;;;;;;5.37;2.73;;;4.00;99.90;;;;;;4941307;28;20219;-89
2021/01/18 05:29:56;;;;;;;14.27;3.70;;;4.10;99.90;;;;;;4948171;28;21010;-90
2021/01/18 05:32:26;;;;;;;7.37;4.50;;;4.20;99.90;;;;;;4966391;28;20669;-89
2021/01/18 05:35:12;;;;;;;2.20;2.00;;;4.20;99.90;;;;;;4965738;28;20597;-89
2021/01/18 05:38:10;;;;;;;5.87;2.00;;;4.20;99.90;;;;;;4964134;28;21024;-89
2021/01/18 05:40:51;;;;;;;2.83;2.57;;;4.30;99.90;;;;;;4963243;28;20230;-90
2021/01/18 05:43:18;;;;;;;3.87;2.47;;;4.30;99.90;;;;;;4981244;28;20648;-89
2021/01/18 05:45:48;;;;;;;5.63;5.13;;;4.30;99.90;;;;;;4948506;28;20211;-90
2021/01/18 05:48:25;;;;;;;3.10;2.90;;;4.40;99.90;;;;;;4966301;28;20246;-89
2021/01/18 05:51:00;;;;;;;2.77;2.57;;;4.30;99.90;;;;;;4966337;28;20216;-90
2021/01/18 05:53:31;;;;;;;1.73;1.63;;;4.40;99.90;;;;;;4966085;28;20290;-90
2021/01/18 05:56:19;;;;;;;2.87;1.83;;;4.40;99.90;;;;;;4966903;28;20192;-90
2021/01/18 05:58:48;;;;;;;4.40;3.13;;;4.40;99.90;;;;;;4978787;28;20220;-90
2021/01/18 06:01:38;;;;;;;18.67;4.90;;;4.40;99.90;;;;;;4965257;28;20306;-91
2021/01/18 06:04:21;;;;;;;15.80;6.37;;;4.40;99.90;;;;;;4965571;28;20765;-88
2021/01/18 06:06:56;;;;;;;2.27;2.07;;;4.40;99.90;;;;;;4981591;28;20212;-88
2021/01/18 06:09:24;;;;;;;4.97;4.53;;;4.40;99.90;;;;;;4965347;28;20207;-88
2021/01/18 06:11:50;;;;;;;1.30;1.27;;;4.40;99.90;;;;;;4948177;28;20228;-89
2021/01/18 06:14:18;;;;;;;3.93;3.30;;;4.40;99.90;;;;;;4967447;28;21069;-89
2021/01/18 06:16:47;;;;;;;1.63;1.53;;;4.40;99.90;;;;;;4948878;28;20220;-89
2021/01/18 06:19:21;;;;;;;4.83;2.37;;;4.40;99.90;;;;;;4957913;28;20275;-88
2021/01/18 06:21:47;;;;;;;0.90;0.87;;;4.40;99.90;;;;;;4981633;28;20727;-88
2021/01/18 06:24:29;;;;;;;3.67;1.43;;;4.40;99.90;;;;;;4964069;28;20208;-88
2021/01/18 06:26:55;;;;;;;8.83;2.60;;;4.40;99.90;;;;;;4965747;28;20680;-88
2021/01/18 06:29:42;;;;;;;1.07;1.00;;;4.40;99.90;;;;;;4950191;28;20192;-89
2021/01/18 06:32:09;;;;;;;5.47;2.00;;;4.40;99.90;;;;;;4980389;28;20314;-89
2021/01/18 06:34:36;;;;;;;7.97;3.03;;;4.50;99.90;;;;;;4964498;28;20220;-89
2021/01/18 06:37:02;;;;;;;1.63;1.63;;;4.50;99.90;;;;;;4982340;28;20231;-89
2021/01/18 06:39:30;;;;;;;8.97;2.23;;;4.60;99.90;;;;;;4965295;28;21049;-88
2021/01/18 06:41:58;;;;;;;1.70;1.57;;;4.70;99.90;;;;;;4964641;28;20319;-89
2021/01/18 06:44:40;;;;;;;5.90;3.10;;;4.70;99.90;;;;;;4964973;28;20188;-89
2021/01/18 06:47:22;;;;;;;1.20;1.00;;;4.80;99.90;;;;;;4981211;28;20220;-89
2021/01/18 06:49:51;;;;;;;7.17;2.43;;;4.80;99.90;;;;;;4964475;28;20322;-88
2021/01/18 06:52:23;;;;;;;7.47;1.47;;;4.80;99.90;;;;;;4964445;28;20223;-88
2021/01/18 06:55:13;;;;;;;2.40;1.97;;;4.80;99.90;;;;;;4980877;28;20228;-88
2021/01/18 06:58:06;;;;;;;2.00;1.17;;;4.80;99.90;;;;;;4949186;28;20307;-89
2021/01/18 07:00:40;;;;;;;2.20;1.07;;;4.80;99.90;;;;;;4964683;28;20239;-88
2021/01/18 07:03:29;;;;;;;3.57;1.47;;;4.80;99.90;;;;;;4981542;28;20215;-88
2021/01/18 07:05:58;;;;;;;1.67;1.17;;;4.80;99.90;;;;;;4963696;28;20274;-89
2021/01/18 07:08:33;;;;;;;2.00;1.13;;;4.80;99.90;;;;;;4965539;28;20188;-88
2021/01/18 07:11:10;;;;;;;2.87;2.67;;;4.80;99.90;;;;;;4964209;28;20224;-89
2021/01/18 07:13:36;;;;;;;4.63;2.10;;;4.80;99.90;;;;;;4978099;28;20258;-89
2021/01/18 07:16:07;;;;;;;7.80;2.30;;;4.80;99.90;;;;;;4948227;28;20220;-89
2021/01/18 07:18:37;;;;;;;4.27;2.60;;;4.80;99.90;;;;;;4961671;28;20223;-87
2021/01/18 07:21:04;;;;;;;1.53;1.43;;;4.70;99.90;;;;;;4980685;28;20234;-89
2021/01/18 07:23:30;;;;;;;3.60;2.40;;;4.80;99.90;;;;;;4963930;28;20231;-88
2021/01/18 07:26:09;;;;;;;2.77;1.03;;;4.80;99.90;;;;;;4965597;28;20198;-88
2021/01/18 07:28:36;;;;;;;7.20;1.70;;;4.80;99.90;;;;;;4963872;28;20228;-88
2021/01/18 07:31:02;;;;;;;1.63;1.53;;;4.90;99.90;;;;;;4956242;28;20236;-87
2021/01/18 07:33:28;;;;;;;2.53;2.03;;;4.90;99.90;;;;;;4947830;28;20223;-87
2021/01/18 07:35:54;;;;;;;12.37;1.80;;;4.90;99.90;;;;;;4962893;28;20231;-88
2021/01/18 07:38:25;;;;;;;5.60;2.87;;;4.90;99.90;;;;;;4949171;28;20194;-87
2021/01/18 07:41:09;;;;;;;6.07;3.53;;;4.90;99.90;;;;;;4980092;28;20270;-87
2021/01/18 07:43:38;;;;;;;0.40;0.40;;;4.90;99.90;;;;;;4962350;28;20342;-87
2021/01/18 07:46:35;;;;;;;3.60;2.77;;;4.90;99.90;;;;;;4962421;28;20224;-87
2021/01/18 07:49:23;;;;;;;12.43;2.43;;;5.00;99.90;;;;;;4962972;28;20262;-88
2021/01/18 07:51:49;;;;;;;3.87;2.03;;;5.00;99.90;;;;;;4962210;28;20591;-87
2021/01/18 07:54:34;;;;;;;3.77;2.00;;;5.00;99.90;;;;;;4963727;28;20231;-86
2021/01/18 07:57:31;;;;;;;4.07;2.13;;;5.00;99.90;;;;;;4995613;28;20250;-86
2021/01/18 08:00:18;;;;;;;3.20;1.17;;;5.00;99.90;;;;;;4963582;28;20270;-88
2021/01/18 08:02:48;;;;;;;5.27;1.20;;;5.00;99.90;;;;;;4981304;28;20246;-89
2021/01/18 08:05:26;;;;;;;2.20;1.80;;;5.10;99.90;;;;;;4980446;28;20181;-88
2021/01/18 08:08:15;;;;;;;1.67;1.60;;;5.10;99.90;;;;;;4963063;28;20673;-86
2021/01/18 08:11:04;;;;;;;4.70;1.63;;;5.10;99.90;;;;;;4961497;28;20216;-88
2021/01/18 08:13:59;;;;;;;0.80;0.70;;;5.20;99.90;;;;;;4947277;28;20822;-88
2021/01/18 08:16:38;;;;;;;1.67;1.57;;;5.20;99.90;;;;;;4961110;28;20218;-88
2021/01/18 08:19:08;;;;;;;6.53;2.83;;;5.20;99.90;;;;;;4978036;28;20228;-88
2021/01/18 08:21:34;;;;;;;9.37;1.13;;;5.20;99.90;;;;;;4979371;28;20227;-88
2021/01/18 08:24:04;;;;;;;4.00;1.30;;;5.30;99.90;;;;;;4962636;28;20223;-88
2021/01/18 08:26:58;;;;;;;3.60;0.80;;;5.30;99.90;;;;;;4962426;28;20212;-88
2021/01/18 08:29:50;;;;;;;0.93;0.63;;;5.30;99.90;;;;;;4960224;28;20223;-89
2021/01/18 08:32:33;;;;;;;8.93;1.47;;;5.30;99.90;;;;;;4957977;28;20222;-88
2021/01/18 08:35:21;;;;;;;0.77;0.77;;;5.40;99.90;;;;;;4959665;28;20601;-88
2021/01/18 08:38:20;;;;;;;1.03;0.83;;;5.40;99.90;;;;;;4976439;28;20228;-88
2021/01/18 08:40:51;;;;;;;2.77;1.33;;;5.40;99.90;;;;;;4936799;28;20231;-88
2021/01/18 08:43:21;;;;;;;8.67;2.03;;;5.50;99.90;;;;;;4962213;28;20208;-89
2021/01/18 08:45:53;;;;;;;2.47;2.00;;;5.50;99.90;;;;;;4980205;28;20228;-88
2021/01/18 08:48:21;;;;;;;3.47;1.70;;;5.60;99.90;;;;;;4975266;28;20254;-86
2021/01/18 08:50:52;;;;;;;5.30;2.20;;;5.60;99.90;;;;;;4946170;28;20231;-88
2021/01/18 08:53:23;;;;;;;4.57;1.97;;;5.60;99.90;;;;;;4964321;28;20220;-88
2021/01/18 08:56:24;;;;;;;1.47;1.37;;;5.70;99.90;;;;;;4962288;28;20220;-88
2021/01/18 08:58:50;;;;;;;3.67;1.50;;;5.70;99.90;;;;;;4960537;28;20290;-90
2021/01/18 09:01:21;;;;;;;0.83;0.83;;;5.70;99.90;;;;;;4959360;28;20767;-90
2021/01/18 09:04:06;;;;;;;6.23;1.77;;;5.60;99.90;;;;;;4962522;28;20219;-90
2021/01/18 09:06:33;;;;;;;1.53;1.43;;;5.70;99.90;;;;;;4963041;28;20223;-88
2021/01/18 09:09:10;;;;;;;1.63;1.53;;;5.70;99.90;;;;;;4964373;28;20230;-89
2021/01/18 09:11:36;;;;;;;1.90;1.80;;;5.70;99.90;;;;;;4980693;28;20192;-89
2021/01/18 09:14:04;;;;;;;3.93;1.20;;;5.80;99.90;;;;;;4966065;28;21106;-88
2021/01/18 09:16:29;;;;;;;1.23;1.20;;;5.80;99.90;;;;;;4982478;28;20310;-88
2021/01/18 09:19:04;;;;;;;3.73;0.83;;;5.80;99.90;;;;;;4980242;28;20218;-89
2021/01/18 09:21:31;;;;;;;1.03;0.70;;;5.80;99.90;;;;;;4981080;28;20223;-89
2021/01/18 09:24:15;;;;;;;2.37;1.10;;;5.90;99.90;;;;;;4980584;28;20738;-88
2021/01/18 09:26:51;;;;;;;8.13;2.10;;;5.90;99.90;;;;;;4966753;28;20247;-89
2021/01/18 09:29:40;;;;;;;0.77;0.77;;;5.90;99.90;;;;;;4979764;28;21417;-88
2021/01/18 09:32:25;;;;;;;1.00;0.90;;;5.90;99.90;;;;;;4968942;28;20207;-84
2021/01/18 09:35:13;;;;;;;1.53;1.43;;;5.90;99.90;;;;;;4978722;28;20231;-88
2021/01/18 09:38:10;;;;;;;0.43;0.43;;;5.90;99.90;;;;;;4970066;28;20215;-89
2021/01/18 09:40:38;;;;;;;3.30;1.43;;;5.90;99.90;;;;;;4950347;28;20278;-89
2021/01/18 09:43:08;;;;;;;7.40;1.87;;;5.90;99.90;;;;;;4966287;28;20212;-90
2021/01/18 09:45:56;;;;;;;6.10;2.70;;;5.90;99.90;;;;;;4968450;28;20239;-89
2021/01/18 09:48:26;;;;;;;0.83;0.83;;;5.90;99.90;;;;;;4966667;28;20243;-88
2021/01/18 09:51:14;;;;;;;5.27;1.07;;;5.90;99.90;;;;;;4982693;28;20251;-89
2021/01/18 09:53:40;;;;;;;2.43;1.60;;;5.90;99.90;;;;;;4949726;28;20239;-88
2021/01/18 09:56:14;;;;;;;0.60;0.60;;;5.90;99.90;;;;;;4966292;28;20203;-88
2021/01/18 09:58:54;;;;;;;10.20;1.70;;;5.90;99.90;;;;;;4949784;28;20298;-87
2021/01/18 10:01:25;;;;;;;2.97;1.63;;;5.90;99.90;;;;;;4966297;28;20607;-90
2021/01/18 10:03:56;;;;;;;4.13;1.13;;;5.90;99.90;;;;;;4965640;28;20219;-88
2021/01/18 10:06:28;;;;;;;1.33;1.23;;;5.90;99.90;;;;;;4982868;28;20802;-89
2021/01/18 10:09:08;;;;;;;1.30;1.17;;;5.90;99.90;;;;;;4965014;28;21334;-90
2021/01/18 10:11:43;;;;;;;0.43;0.43;;;5.90;99.90;;;;;;4960221;28;20310;-90
2021/01/18 10:14:23;;;;;;;14.13;2.87;;;5.90;99.90;;;;;;4968321;28;20242;-90
2021/01/18 10:17:03;;;;;;;0.53;0.47;;;6.00;99.90;;;;;;4965760;28;20223;-89
2021/01/18 10:19:39;;;;;;;5.20;0.87;;;6.00;99.90;;;;;;4965084;28;20220;-90
2021/01/18 10:22:14;;;;;;;1.70;1.03;;;6.00;99.90;;;;;;4965581;28;20302;-89
2021/01/18 10:24:59;;;;;;;1.43;1.33;;;6.00;99.90;;;;;;4966738;28;20340;-89
2021/01/18 10:27:29;;;;;;;4.43;2.23;;;6.00;99.90;;;;;;4965991;28;20216;-90
2021/01/18 10:30:11;;;;;;;1.23;0.97;;;6.00;99.90;;;;;;4965272;28;20223;-90
2021/01/18 10:32:44;;;;;;;5.23;1.03;;;6.00;99.90;;;;;;4963701;28;20195;-90
2021/01/18 10:35:26;;;;;;;2.20;1.77;;;6.10;99.90;;;;;;4966699;28;20199;-90
2021/01/18 10:37:52;;;;;;;3.67;1.33;;;6.00;99.90;;;;;;4982809;28;20223;-88
2021/01/18 10:40:22;;;;;;;1.23;1.13;;;6.00;99.90;;;;;;4964532;28;20227;-90
2021/01/18 10:43:02;;;;;;;8.87;1.87;;;6.00;99.90;;;;;;4949122;28;20262;-90
2021/01/18 10:45:29;;;;;;;5.70;1.33;;;6.00;99.90;;;;;;4965572;28;20220;-89
2021/01/18 10:48:01;;;;;;;3.30;3.00;;;6.00;99.90;;;;;;4964130;28;20331;-89
2021/01/18 10:50:30;;;;;;;3.20;1.93;;;6.00;99.90;;;;;;4980685;28;20211;-89
2021/01/18 10:53:06;;;;;;;0.60;0.60;;;6.00;99.90;;;;;;4964717;28;20188;-90
2021/01/18 10:55:32;;;;;;;5.70;0.93;;;6.00;99.90;;;;;;4962718;28;20739;-90
2021/01/18 10:58:26;;;;;;;0.97;0.97;;;6.10;99.90;;;;;;4980970;28;20302;-90
2021/01/18 11:01:15;;;;;;;9.63;1.10;;;6.10;99.90;;;;;;4964489;28;20282;-88
2021/01/18 11:03:41;;;;;;;0.97;0.90;;;6.10;99.90;;;;;;4964782;28;20330;-90
2021/01/18 11:06:15;;;;;;;1.03;0.97;;;6.20;99.90;;;;;;4946029;28;20302;-88
2021/01/18 11:08:53;;;;;;;3.23;1.80;;;6.20;99.90;;;;;;4980609;28;20230;-89
2021/01/18 11:11:29;;;;;;;1.10;1.00;;;6.20;99.90;;;;;;4980978;28;20195;-88
2021/01/18 11:14:00;;;;;;;0.50;0.50;;;6.20;99.90;;;;;;4964893;28;20218;-90
2021/01/18 11:16:26;;;;;;;1.87;1.40;;;6.20;99.90;;;;;;4964804;28;20231;-89
2021/01/18 11:19:05;;;;;;;1.07;1.07;;;6.20;99.90;;;;;;4961374;28;20224;-89
2021/01/18 11:21:31;;;;;;;10.20;1.37;;;6.20;99.90;;;;;;4936963;28;20232;-90
2021/01/18 11:23:57;;;;;;;2.90;1.43;;;6.20;99.90;;;;;;4945668;28;20220;-89
2021/01/18 11:26:24;;;;;;;1.43;1.30;;;6.30;99.90;;;;;;4966098;28;20184;-89
2021/01/18 11:28:50;;;;;;;2.27;1.57;;;6.20;99.90;;;;;;4931935;28;20299;-89
2021/01/18 11:31:17;;;;;;;5.73;0.83;;;6.30;99.90;;;;;;4979953;28;20218;-90
2021/01/18 11:33:46;;;;;;;19.83;0.73;;;6.30;99.90;;;;;;4979101;28;20254;-91
2021/01/18 11:36:12;;;;;;;1.50;0.80;;;6.40;99.90;;;;;;4978054;28;20223;-90
2021/01/18 11:38:41;;;;;;;5.77;1.00;;;6.40;99.90;;;;;;4960382;28;20180;-91
2021/01/18 11:41:06;;;;;;;3.07;1.03;;;6.50;99.90;;;;;;4978278;28;20212;-91
2021/01/18 11:43:33;;;;;;;9.73;2.23;;;6.50;99.90;;;;;;4959443;28;21030;-90
2021/01/18 11:46:02;;;;;;;1.07;1.07;;;6.50;99.90;;;;;;4943818;28;20207;-91
2021/01/18 11:48:28;;;;;;;1.67;1.50;;;6.40;99.90;;;;;;4922201;28;20236;-90
2021/01/18 11:50:55;;;;;;;12.03;1.73;;;6.40;99.90;;;;;;4925392;28;20636;-91
2021/01/18 11:53:21;;;;;;;4.17;1.40;;;6.40;99.90;;;;;;4943520;28;20188;-90
2021/01/18 11:55:47;;;;;;;1.60;1.17;;;6.40;99.90;;;;;;4926491;28;20277;-91
2021/01/18 11:58:13;;;;;;;7.30;1.37;;;6.50;99.90;;;;;;4957774;28;20602;-92
2021/01/18 12:00:39;;;;;;;1.37;0.60;;;6.40;99.90;;;;;;4941513;28;20764;-91
2021/01/18 12:03:05;;;;;;;4.67;1.27;;;6.40;99.90;;;;;;4939539;28;20251;-91
2021/01/18 12:05:31;;;;;;;16.50;2.27;;;6.50;99.90;;;;;;4940122;28;20192;-91
2021/01/18 12:08:02;;;;;;;1.37;0.73;;;6.50;99.90;;;;;;4959499;28;21088;-92
2021/01/18 12:10:29;;;;;;;2.10;0.87;;;6.50;99.90;;;;;;4957252;28;20244;-94
2021/01/18 12:12:56;;;;;;;2.47;1.10;;;6.50;99.90;;;;;;4956647;28;20786;-92
2021/01/18 12:15:21;;;;;;;1.30;1.20;;;6.50;99.90;;;;;;4939907;28;20221;-91
2021/01/18 12:17:47;;;;;;;2.83;1.47;;;6.60;99.90;;;;;;4929835;28;20748;-91
2021/01/18 12:20:19;;;;;;;2.97;2.50;;;6.60;99.90;;;;;;4941749;28;20235;-89
2021/01/18 12:22:45;;;;;;;0.70;0.47;;;6.50;99.90;;;;;;4938286;28;20729;-90
2021/01/18 12:25:11;;;;;;;1.70;1.63;;;6.50;99.90;;;;;;4958304;28;20689;-89
2021/01/18 12:27:37;;;;;;;4.43;1.93;;;6.50;99.90;;;;;;4956902;28;20267;-89
2021/01/18 12:30:04;;;;;;;6.33;1.20;;;6.40;99.90;;;;;;4955055;28;20283;-90
2021/01/18 12:32:30;;;;;;;2.73;1.07;;;6.50;99.90;;;;;;4939309;28;20607;-88
2021/01/18 12:34:56;;;;;;;3.27;1.37;;;6.50;99.90;;;;;;4940905;28;20239;-90
2021/01/18 12:37:22;;;;;;;1.53;1.43;;;6.50;99.90;;;;;;4939351;28;20292;-91
2021/01/18 12:39:48;;;;;;;3.50;1.73;;;6.50;99.90;;;;;;4935823;28;20211;-90
2021/01/18 12:42:13;;;;;;;0.97;0.97;;;6.50;99.90;;;;;;4939469;28;20267;-89
2021/01/18 12:44:39;;;;;;;6.77;1.60;;;6.50;99.90;;;;;;4928401;28;20650;-90
2021/01/18 12:47:05;;;;;;;3.93;1.63;;;6.50;99.90;;;;;;4962074;28;20205;-89
2021/01/18 12:49:32;;;;;;;4.70;1.00;;;6.50;99.90;;;;;;4957740;28;20248;-88
2021/01/18 12:51:58;;;;;;;1.40;1.30;;;6.50;99.90;;;;;;4963218;28;20211;-88
2021/01/18 12:54:24;;;;;;;2.20;0.80;;;6.50;99.90;;;;;;4946135;28;20298;-88
2021/01/18 12:56:53;;;;;;;2.87;1.33;;;6.50;99.90;;;;;;4979494;28;20227;-88
2021/01/18 12:59:19;;;;;;;9.57;1.10;;;6.50;99.90;;;;;;4964249;28;20188;-88
2021/01/18 13:01:45;;;;;;;1.53;1.27;;;6.50;99.90;;;;;;4963294;28;20598;-87
2021/01/18 13:04:11;;;;;;;2.63;1.53;;;6.50;99.90;;;;;;4963594;28;20301;-87
2021/01/18 13:06:42;;;;;;;1.43;0.60;;;6.60;99.90;;;;;;4964702;28;20693;-87
2021/01/18 13:09:10;;;;;;;0.60;0.40;;;6.50;99.90;;;;;;4948547;28;20286;-87
2021/01/18 13:11:36;;;;;;;4.43;1.50;;;6.50;99.90;;;;;;4964850;28;20192;-87
2021/01/18 13:14:03;;;;;;;0.67;0.67;;;6.50;99.90;;;;;;4982424;28;20196;-86
2021/01/18 13:16:29;;;;;;;1.37;0.90;;;6.50;99.90;;;;;;4981579;28;20270;-87
2021/01/18 13:18:55;;;;;;;4.03;0.90;;;6.40;99.90;;;;;;4948327;28;20589;-87
2021/01/18 13:21:21;;;;;;;0.73;0.67;;;6.40;99.90;;;;;;4962563;28;20242;-87
2021/01/18 13:23:50;;;;;;;3.10;0.83;;;6.50;99.90;;;;;;4946635;28;20216;-87